Time;durP1;ratioP1;P1;durP2;ratioP2;P2;SDS_P1;SDS_P2;PMS_P1;PMS_P2;Temp;Humidity;BMP_temperature;BMP_pressure;BME280_temperature;BME280_humidity;BME280_pressure;Samples;Min_cycle;Max_cycle;Signal;HPM_P1;HPM_P2
2023/06/08 00:00:10;;;;;;;14.68;7.10;;;;;;;;;;5011440;28;20127;-59
2023/06/08 00:02:36;;;;;;;14.90;7.22;;;;;;;;;;5017560;28;20036;-59
2023/06/08 00:05:02;;;;;;;14.52;7.43;;;;;;;;;;5020605;28;20026;-58
2023/06/08 00:07:29;;;;;;;14.25;7.28;;;;;;;;;;5010806;28;20053;-58
2023/06/08 00:09:54;;;;;;;16.48;8.05;;;;;;;;;;4994907;28;20045;-58
2023/06/08 00:12:20;;;;;;;17.50;7.45;;;;;;;;;;4994808;28;20031;-59
2023/06/08 00:14:46;;;;;;;14.52;7.60;;;;;;;;;;5009209;28;20125;-59
2023/06/08 00:17:12;;;;;;;13.70;7.30;;;;;;;;;;4998443;28;20113;-59
2023/06/08 00:19:37;;;;;;;11.52;7.28;;;;;;;;;;5008908;28;20047;-59
2023/06/08 00:22:05;;;;;;;16.15;7.20;;;;;;;;;;5005347;28;20057;-59
2023/06/08 00:24:31;;;;;;;17.67;7.53;;;;;;;;;;4993000;28;20041;-59
2023/06/08 00:26:56;;;;;;;16.90;7.60;;;;;;;;;;5002217;28;20033;-59
2023/06/08 00:29:22;;;;;;;11.75;7.03;;;;;;;;;;5005737;28;20046;-59
2023/06/08 00:31:48;;;;;;;12.38;7.18;;;;;;;;;;5030782;28;20116;-59
2023/06/08 00:34:14;;;;;;;17.75;8.15;;;;;;;;;;5006987;28;20058;-59
2023/06/08 00:36:39;;;;;;;19.40;7.85;;;;;;;;;;5024175;28;20029;-58
2023/06/08 00:39:05;;;;;;;17.52;7.72;;;;;;;;;;4995699;28;20294;-59
2023/06/08 00:41:30;;;;;;;17.48;7.72;;;;;;;;;;4992110;28;20116;-58
2023/06/08 00:43:56;;;;;;;20.48;8.02;;;;;;;;;;5001622;28;20038;-59
2023/06/08 00:46:24;;;;;;;14.35;7.47;;;;;;;;;;5011092;28;20455;-59
2023/06/08 00:48:51;;;;;;;13.90;7.13;;;;;;;;;;5007912;28;20096;-59
2023/06/08 00:51:17;;;;;;;15.65;7.35;;;;;;;;;;5004017;28;20034;-59
2023/06/08 00:53:43;;;;;;;13.43;7.28;;;;;;;;;;5008225;28;20041;-59
2023/06/08 00:56:11;;;;;;;15.13;7.38;;;;;;;;;;5009610;28;20030;-59
2023/06/08 00:58:37;;;;;;;15.77;7.13;;;;;;;;;;5008937;28;20028;-58
2023/06/08 01:01:04;;;;;;;15.30;7.35;;;;;;;;;;4995750;28;20104;-58
2023/06/08 01:03:38;;;;;;;14.60;7.22;;;;;;;;;;5019075;28;20084;-59
2023/06/08 01:06:08;;;;;;;15.68;7.35;;;;;;;;;;4995707;28;20120;-59
2023/06/08 01:08:47;;;;;;;15.20;7.22;;;;;;;;;;5014540;28;20496;-59
2023/06/08 01:11:28;;;;;;;15.02;7.57;;;;;;;;;;5008319;28;20029;-59
2023/06/08 01:14:06;;;;;;;13.32;7.25;;;;;;;;;;5018792;28;20113;-58
2023/06/08 01:16:37;;;;;;;14.70;7.05;;;;;;;;;;5008132;28;20482;-59
2023/06/08 01:19:10;;;;;;;;;;;;;;;;;;5001716;28;20030;-57
2023/06/08 01:22:14;;;;;;;16.88;7.03;;;;;;;;;;4993232;28;20336;-59
2023/06/08 01:24:49;;;;;;;12.70;6.97;;;;;;;;;;5007927;28;20461;-59
2023/06/08 01:27:24;;;;;;;15.90;6.72;;;;;;;;;;5012966;28;20080;-59
2023/06/08 01:29:51;;;;;;;13.32;7.10;;;;;;;;;;5015803;28;20029;-59
2023/06/08 01:32:17;;;;;;;15.43;7.10;;;;;;;;;;5013675;28;20096;-59
2023/06/08 01:34:43;;;;;;;14.88;7.20;;;;;;;;;;5001609;28;20092;-60
2023/06/08 01:37:29;;;;;;;15.38;7.10;;;;;;;;;;5006947;28;20034;-60
2023/06/08 01:40:03;;;;;;;12.32;6.82;;;;;;;;;;5011462;28;20050;-60
2023/06/08 01:42:32;;;;;;;14.38;6.85;;;;;;;;;;5005215;28;20037;-58
2023/06/08 01:45:00;;;;;;;18.88;7.15;;;;;;;;;;5003237;28;20113;-59
2023/06/08 01:47:33;;;;;;;13.60;6.60;;;;;;;;;;4996738;28;20030;-59
2023/06/08 01:50:00;;;;;;;13.85;7.00;;;;;;;;;;4995648;28;20031;-57
2023/06/08 01:52:26;;;;;;;14.15;7.10;;;;;;;;;;4994291;28;20030;-59
2023/06/08 01:54:51;;;;;;;13.73;6.95;;;;;;;;;;5013725;28;20037;-59
2023/06/08 01:57:17;;;;;;;15.68;7.50;;;;;;;;;;5015261;28;20100;-58
2023/06/08 01:59:42;;;;;;;18.52;7.82;;;;;;;;;;5009394;28;20827;-58
2023/06/08 02:02:07;;;;;;;13.93;7.00;;;;;;;;;;5012944;28;20386;-59
2023/06/08 02:04:33;;;;;;;15.07;7.22;;;;;;;;;;5012419;28;20037;-59
2023/06/08 02:06:58;;;;;;;12.57;7.47;;;;;;;;;;5013413;28;20529;-59
2023/06/08 02:09:24;;;;;;;16.60;7.30;;;;;;;;;;5006994;28;20133;-61
2023/06/08 02:11:50;;;;;;;13.73;6.72;;;;;;;;;;5012732;28;20424;-59
2023/06/08 02:14:15;;;;;;;13.82;7.55;;;;;;;;;;5012441;28;20098;-59
2023/06/08 02:16:45;;;;;;;16.13;7.57;;;;;;;;;;5013060;28;20034;-58
2023/06/08 02:19:14;;;;;;;14.15;7.10;;;;;;;;;;5010733;28;20064;-59
2023/06/08 02:21:40;;;;;;;13.48;7.25;;;;;;;;;;5006402;28;20034;-60
2023/06/08 02:24:06;;;;;;;15.07;7.78;;;;;;;;;;5003540;28;20034;-59
2023/06/08 02:26:32;;;;;;;16.80;7.88;;;;;;;;;;5012783;28;20040;-59
2023/06/08 02:28:58;;;;;;;16.08;7.45;;;;;;;;;;5014186;28;20044;-60
2023/06/08 02:31:25;;;;;;;13.80;7.75;;;;;;;;;;5017155;28;20030;-59
2023/06/08 02:33:51;;;;;;;13.07;7.85;;;;;;;;;;5012376;28;20040;-59
2023/06/08 02:36:17;;;;;;;15.93;7.97;;;;;;;;;;5008903;28;20033;-59
2023/06/08 02:38:42;;;;;;;17.58;7.97;;;;;;;;;;4993051;28;20030;-58
2023/06/08 02:41:08;;;;;;;17.60;8.25;;;;;;;;;;5005353;28;20054;-59
2023/06/08 02:43:33;;;;;;;16.85;8.02;;;;;;;;;;5012692;28;20414;-59
2023/06/08 02:45:58;;;;;;;14.07;7.90;;;;;;;;;;5011863;28;20355;-57
2023/06/08 02:48:24;;;;;;;14.90;7.85;;;;;;;;;;5010947;28;20043;-60
2023/06/08 02:50:49;;;;;;;14.88;7.20;;;;;;;;;;5010979;28;20038;-59
2023/06/08 02:53:15;;;;;;;15.75;8.10;;;;;;;;;;5005236;28;20030;-59
2023/06/08 02:55:40;;;;;;;17.70;8.00;;;;;;;;;;5007238;28;20457;-59
2023/06/08 02:58:06;;;;;;;12.75;7.00;;;;;;;;;;5000994;28;20037;-59
2023/06/08 03:00:32;;;;;;;13.23;7.80;;;;;;;;;;5027923;28;20080;-58
2023/06/08 03:03:00;;;;;;;15.95;8.20;;;;;;;;;;5011183;28;20042;-60
2023/06/08 03:05:25;;;;;;;14.85;7.97;;;;;;;;;;5012260;28;20038;-60
2023/06/08 03:07:52;;;;;;;15.40;7.75;;;;;;;;;;4999222;28;20033;-60
2023/06/08 03:10:18;;;;;;;16.35;8.07;;;;;;;;;;5014824;28;20490;-59
2023/06/08 03:12:44;;;;;;;18.15;8.63;;;;;;;;;;5015754;28;20045;-57
2023/06/08 03:15:10;;;;;;;16.80;8.48;;;;;;;;;;5010021;28;20036;-59
2023/06/08 03:17:36;;;;;;;17.35;8.07;;;;;;;;;;5009591;28;20483;-62
2023/06/08 03:20:02;;;;;;;15.88;8.45;;;;;;;;;;5014371;28;20065;-59
2023/06/08 03:22:29;;;;;;;16.77;7.85;;;;;;;;;;5018514;28;20069;-59
2023/06/08 03:24:58;;;;;;;15.77;7.88;;;;;;;;;;4995861;28;20489;-59
2023/06/08 03:27:23;;;;;;;16.50;8.52;;;;;;;;;;5004075;28;20497;-59
2023/06/08 03:29:49;;;;;;;16.30;8.48;;;;;;;;;;5021054;28;20112;-59
2023/06/08 03:32:15;;;;;;;16.58;8.38;;;;;;;;;;4995351;28;20490;-60
2023/06/08 03:34:40;;;;;;;15.70;8.55;;;;;;;;;;4995451;28;20033;-59
2023/06/08 03:37:06;;;;;;;14.95;7.90;;;;;;;;;;5017568;28;20454;-58
2023/06/08 03:39:31;;;;;;;16.77;8.60;;;;;;;;;;5008678;28;20080;-58
2023/06/08 03:41:56;;;;;;;15.98;8.15;;;;;;;;;;5015756;28;20477;-59
2023/06/08 03:44:22;;;;;;;18.15;8.60;;;;;;;;;;5009549;28;20065;-58
2023/06/08 03:46:47;;;;;;;16.05;8.60;;;;;;;;;;5010846;28;20042;-58
2023/06/08 03:49:13;;;;;;;17.80;8.10;;;;;;;;;;4994660;28;20042;-60
2023/06/08 03:51:39;;;;;;;15.77;8.40;;;;;;;;;;5005372;28;20029;-60
2023/06/08 03:54:04;;;;;;;15.48;8.13;;;;;;;;;;5007117;28;20041;-60
2023/06/08 03:56:30;;;;;;;18.58;9.10;;;;;;;;;;5009825;28;20100;-58
2023/06/08 03:58:56;;;;;;;20.45;9.05;;;;;;;;;;5015336;28;20044;-60
2023/06/08 04:01:22;;;;;;;14.05;8.20;;;;;;;;;;5010782;28;20149;-58
2023/06/08 04:03:47;;;;;;;20.92;8.60;;;;;;;;;;5020080;28;20086;-57
2023/06/08 04:06:14;;;;;;;20.95;8.48;;;;;;;;;;5009374;28;20033;-59
2023/06/08 04:08:40;;;;;;;17.10;9.38;;;;;;;;;;4993613;28;20044;-59
2023/06/08 04:11:09;;;;;;;18.67;8.65;;;;;;;;;;4992675;28;20030;-59
2023/06/08 04:13:36;;;;;;;17.25;8.00;;;;;;;;;;5022392;28;20025;-58
2023/06/08 04:16:03;;;;;;;18.17;8.35;;;;;;;;;;5007487;28;20095;-59
2023/06/08 04:18:29;;;;;;;17.58;8.32;;;;;;;;;;4998339;28;20060;-59
2023/06/08 04:20:54;;;;;;;16.05;8.43;;;;;;;;;;5010172;28;20062;-59
2023/06/08 04:23:20;;;;;;;18.40;8.65;;;;;;;;;;5001410;28;20057;-59
2023/06/08 04:25:46;;;;;;;19.65;8.43;;;;;;;;;;4998816;28;20470;-59
2023/06/08 04:28:12;;;;;;;15.63;7.88;;;;;;;;;;5027737;28;20062;-59
2023/06/08 04:30:37;;;;;;;18.30;8.15;;;;;;;;;;4994706;28;20037;-59
2023/06/08 04:33:03;;;;;;;21.00;8.55;;;;;;;;;;5002434;28;20055;-58
2023/06/08 04:35:28;;;;;;;18.33;8.65;;;;;;;;;;5009497;28;20386;-60
2023/06/08 04:37:53;;;;;;;16.30;7.97;;;;;;;;;;5005772;28;20033;-59
2023/06/08 04:40:19;;;;;;;18.08;8.45;;;;;;;;;;4993755;28;20113;-59
2023/06/08 04:42:45;;;;;;;16.92;8.52;;;;;;;;;;5004419;28;20033;-59
2023/06/08 04:45:12;;;;;;;17.88;8.20;;;;;;;;;;5017725;28;20034;-60
2023/06/08 04:47:39;;;;;;;17.25;8.18;;;;;;;;;;5007154;28;20109;-58
2023/06/08 04:50:09;;;;;;;16.20;8.60;;;;;;;;;;4990394;28;20518;-59
2023/06/08 04:52:40;;;;;;;17.55;8.20;;;;;;;;;;5009309;28;20034;-60
2023/06/08 04:55:12;;;;;;;15.65;8.15;;;;;;;;;;4995673;28;20061;-59
2023/06/08 04:57:38;;;;;;;17.52;8.38;;;;;;;;;;5011834;28;20044;-59
2023/06/08 05:00:06;;;;;;;14.57;7.78;;;;;;;;;;5007007;28;20105;-59
2023/06/08 05:02:32;;;;;;;17.88;8.30;;;;;;;;;;5009971;28;20462;-59
2023/06/08 05:04:58;;;;;;;15.20;8.77;;;;;;;;;;5004292;28;20041;-60
2023/06/08 05:07:24;;;;;;;17.30;8.13;;;;;;;;;;5022826;28;20041;-59
2023/06/08 05:09:49;;;;;;;20.65;8.40;;;;;;;;;;5019905;28;20068;-59
2023/06/08 05:12:14;;;;;;;16.10;7.90;;;;;;;;;;5012804;28;20505;-59
2023/06/08 05:14:41;;;;;;;15.65;7.90;;;;;;;;;;5020196;28;20430;-59
2023/06/08 05:17:08;;;;;;;15.25;8.05;;;;;;;;;;4999891;28;20490;-59
2023/06/08 05:19:33;;;;;;;15.95;8.32;;;;;;;;;;5007957;28;20041;-60
2023/06/08 05:21:59;;;;;;;17.70;8.65;;;;;;;;;;5014152;28;20026;-59
2023/06/08 05:24:25;;;;;;;21.15;8.80;;;;;;;;;;5013512;28;20658;-59
2023/06/08 05:26:50;;;;;;;15.70;8.02;;;;;;;;;;5007030;28;20041;-59
2023/06/08 05:29:15;;;;;;;18.13;8.20;;;;;;;;;;4994231;28;20050;-58
2023/06/08 05:31:41;;;;;;;17.45;8.73;;;;;;;;;;5007545;28;20054;-60
2023/06/08 05:34:06;;;;;;;16.13;8.30;;;;;;;;;;5011004;28;20057;-60
2023/06/08 05:36:32;;;;;;;16.35;8.18;;;;;;;;;;5008304;28;20060;-59
2023/06/08 05:38:57;;;;;;;15.55;8.18;;;;;;;;;;5020632;28;20034;-58
2023/06/08 05:41:22;;;;;;;16.50;8.50;;;;;;;;;;5025832;28;20038;-59
2023/06/08 05:43:48;;;;;;;20.70;8.70;;;;;;;;;;5013431;28;20060;-59
2023/06/08 05:46:15;;;;;;;15.32;8.00;;;;;;;;;;5010637;28;20041;-57
2023/06/08 05:48:41;;;;;;;17.98;8.65;;;;;;;;;;5000453;28;20041;-58
2023/06/08 05:51:06;;;;;;;14.90;8.27;;;;;;;;;;4994760;28;20034;-59
2023/06/08 05:53:31;;;;;;;18.45;7.80;;;;;;;;;;5001634;28;20030;-59
2023/06/08 05:55:57;;;;;;;15.00;7.82;;;;;;;;;;5000669;28;20038;-59
2023/06/08 05:58:23;;;;;;;13.68;8.30;;;;;;;;;;5005512;28;20112;-58
2023/06/08 06:00:48;;;;;;;14.75;8.15;;;;;;;;;;5034248;28;20079;-59
2023/06/08 06:03:14;;;;;;;15.13;7.80;;;;;;;;;;5011775;28;20034;-59
2023/06/08 06:05:39;;;;;;;15.02;8.30;;;;;;;;;;4999501;28;20062;-59
2023/06/08 06:08:04;;;;;;;15.98;7.97;;;;;;;;;;5019745;28;20037;-60
2023/06/08 06:10:30;;;;;;;16.15;8.07;;;;;;;;;;5005707;28;20026;-58
2023/06/08 06:12:55;;;;;;;16.02;7.97;;;;;;;;;;5024512;28;20429;-59
2023/06/08 06:15:21;;;;;;;13.48;8.00;;;;;;;;;;5011756;28;20045;-60
2023/06/08 06:17:46;;;;;;;15.18;8.10;;;;;;;;;;5012237;28;20030;-59
2023/06/08 06:20:12;;;;;;;17.13;8.57;;;;;;;;;;5007621;28;20033;-59
2023/06/08 06:22:37;;;;;;;14.75;7.82;;;;;;;;;;5010124;28;20037;-60
2023/06/08 06:25:03;;;;;;;18.13;7.90;;;;;;;;;;4999843;28;20069;-49
2023/06/08 06:27:28;;;;;;;15.70;8.63;;;;;;;;;;5010811;28;20084;-50
2023/06/08 06:29:53;;;;;;;16.23;7.70;;;;;;;;;;5009404;28;20502;-52
2023/06/08 06:32:20;;;;;;;14.95;8.07;;;;;;;;;;5031187;28;20033;-54
2023/06/08 06:34:45;;;;;;;18.98;8.45;;;;;;;;;;5033731;28;20108;-51
2023/06/08 06:37:10;;;;;;;18.05;7.85;;;;;;;;;;5006520;28;20492;-53
2023/06/08 06:39:36;;;;;;;13.63;7.82;;;;;;;;;;5003090;28;20049;-50
2023/06/08 06:42:02;;;;;;;14.95;7.72;;;;;;;;;;5013047;28;20033;-51
2023/06/08 06:44:27;;;;;;;18.30;8.07;;;;;;;;;;5012848;28;20808;-54
2023/06/08 06:46:53;;;;;;;13.30;7.53;;;;;;;;;;5028324;28;20033;-54
2023/06/08 06:49:18;;;;;;;17.23;8.23;;;;;;;;;;5028056;28;20062;-50
2023/06/08 06:51:44;;;;;;;17.13;7.50;;;;;;;;;;5033215;28;20056;-56
2023/06/08 06:54:09;;;;;;;16.17;8.35;;;;;;;;;;5030190;28;20044;-56
2023/06/08 06:56:35;;;;;;;13.15;7.65;;;;;;;;;;5032170;28;20108;-49
2023/06/08 06:59:00;;;;;;;18.80;8.18;;;;;;;;;;5016084;28;20040;-49
2023/06/08 07:01:26;;;;;;;17.42;8.60;;;;;;;;;;5032246;28;20379;-49
2023/06/08 07:03:52;;;;;;;15.00;8.15;;;;;;;;;;5028344;28;20405;-50
2023/06/08 07:06:21;;;;;;;18.88;8.35;;;;;;;;;;5031100;28;20136;-51
2023/06/08 07:08:46;;;;;;;15.70;7.82;;;;;;;;;;5030993;28;20104;-51
2023/06/08 07:11:12;;;;;;;15.95;8.35;;;;;;;;;;5031180;28;20117;-57
2023/06/08 07:13:37;;;;;;;13.30;7.57;;;;;;;;;;5028929;28;20466;-51
2023/06/08 07:16:04;;;;;;;13.75;7.70;;;;;;;;;;5011738;28;20025;-51
2023/06/08 07:18:30;;;;;;;14.40;8.45;;;;;;;;;;5012346;28;20034;-49
2023/06/08 07:20:56;;;;;;;15.48;8.05;;;;;;;;;;5012741;28;20041;-53
2023/06/08 07:23:21;;;;;;;17.70;8.18;;;;;;;;;;5011731;28;20029;-51
2023/06/08 07:25:47;;;;;;;20.08;8.25;;;;;;;;;;5027374;28;20034;-56
2023/06/08 07:28:12;;;;;;;11.68;7.55;;;;;;;;;;5026329;28;20456;-55
2023/06/08 07:30:38;;;;;;;15.15;8.18;;;;;;;;;;4992994;28;20230;-54
2023/06/08 07:33:03;;;;;;;15.38;7.78;;;;;;;;;;5011031;28;20044;-55
2023/06/08 07:35:29;;;;;;;15.00;8.13;;;;;;;;;;5024952;28;20055;-51
2023/06/08 07:37:54;;;;;;;12.90;7.13;;;;;;;;;;4998543;28;20033;-56
2023/06/08 07:40:20;;;;;;;17.40;8.50;;;;;;;;;;5011912;28;20046;-49
2023/06/08 07:42:46;;;;;;;20.73;8.43;;;;;;;;;;5011311;28;20037;-54
2023/06/08 07:45:12;;;;;;;17.23;8.60;;;;;;;;;;5005669;28;20037;-59
2023/06/08 07:47:38;;;;;;;18.95;8.57;;;;;;;;;;4999707;28;20088;-59
2023/06/08 07:50:05;;;;;;;14.60;8.95;;;;;;;;;;5011113;28;20033;-60
2023/06/08 07:52:31;;;;;;;15.25;8.95;;;;;;;;;;5000135;28;20454;-59
2023/06/08 07:54:56;;;;;;;16.80;8.40;;;;;;;;;;5032290;28;20037;-59
2023/06/08 07:57:21;;;;;;;17.25;8.52;;;;;;;;;;5031072;28;20033;-58
2023/06/08 07:59:47;;;;;;;16.90;8.80;;;;;;;;;;5031849;28;20116;-59
2023/06/08 08:02:12;;;;;;;16.55;8.88;;;;;;;;;;5031080;28;20025;-66
2023/06/08 08:04:38;;;;;;;14.38;8.35;;;;;;;;;;5021840;28;20470;-60
2023/06/08 08:07:03;;;;;;;15.30;8.48;;;;;;;;;;5009838;28;20033;-59
2023/06/08 08:09:28;;;;;;;18.60;8.93;;;;;;;;;;5011595;28;20038;-59
2023/06/08 08:11:54;;;;;;;18.65;8.73;;;;;;;;;;4996042;28;20034;-60
2023/06/08 08:14:19;;;;;;;16.80;9.05;;;;;;;;;;4991642;28;20455;-60
2023/06/08 08:16:45;;;;;;;14.48;8.85;;;;;;;;;;4992092;28;20026;-52
2023/06/08 08:19:10;;;;;;;15.07;8.18;;;;;;;;;;4993010;28;20502;-51
2023/06/08 08:21:35;;;;;;;14.70;8.18;;;;;;;;;;5030966;28;20164;-51
2023/06/08 08:24:01;;;;;;;15.90;8.57;;;;;;;;;;5015904;28;20525;-55
2023/06/08 08:26:28;;;;;;;14.95;8.57;;;;;;;;;;5002801;28;20033;-53
2023/06/08 08:28:55;;;;;;;20.35;9.05;;;;;;;;;;4992438;28;20113;-53
2023/06/08 08:31:21;;;;;;;14.75;8.68;;;;;;;;;;5001765;28;20026;-50
2023/06/08 08:33:46;;;;;;;17.63;8.68;;;;;;;;;;5024539;28;20404;-54
2023/06/08 08:36:11;;;;;;;14.65;8.18;;;;;;;;;;5031506;28;20029;-55
2023/06/08 08:38:39;;;;;;;20.75;8.45;;;;;;;;;;5030092;28;20103;-51
2023/06/08 08:41:06;;;;;;;15.82;9.23;;;;;;;;;;5011735;28;20046;-54
2023/06/08 08:44:01;;;;;;;16.45;8.90;;;;;;;;;;5006549;28;20414;-53
2023/06/08 08:46:30;;;;;;;17.20;8.52;;;;;;;;;;4991095;28;20109;-52
2023/06/08 08:49:00;;;;;;;14.48;8.23;;;;;;;;;;5008390;28;20036;-50
2023/06/08 08:51:28;;;;;;;14.98;8.82;;;;;;;;;;5010948;28;20105;-53
2023/06/08 08:53:55;;;;;;;15.95;8.77;;;;;;;;;;5011817;28;20045;-52
2023/06/08 08:56:22;;;;;;;15.25;7.78;;;;;;;;;;5009812;28;20376;-49
2023/06/08 08:58:50;;;;;;;15.05;7.80;;;;;;;;;;5011658;28;20034;-48
2023/06/08 09:01:18;;;;;;;13.10;8.27;;;;;;;;;;5001732;28;20035;-56
2023/06/08 09:03:44;;;;;;;13.77;7.68;;;;;;;;;;5011468;28;20124;-48
2023/06/08 09:06:09;;;;;;;13.70;8.02;;;;;;;;;;5011338;28;20113;-56
2023/06/08 09:08:35;;;;;;;14.70;8.23;;;;;;;;;;5026145;28;20796;-53
2023/06/08 09:11:05;;;;;;;11.50;7.80;;;;;;;;;;5013568;28;20075;-53
2023/06/08 09:13:32;;;;;;;17.08;8.70;;;;;;;;;;5022005;28;20037;-55
2023/06/08 09:16:19;;;;;;;12.73;8.40;;;;;;;;;;5006464;28;20096;-54
2023/06/08 09:18:46;;;;;;;15.80;7.75;;;;;;;;;;5009385;28;20026;-56
2023/06/08 09:21:22;;;;;;;15.35;8.40;;;;;;;;;;5015503;28;20038;-52
2023/06/08 09:24:07;;;;;;;16.50;8.65;;;;;;;;;;4991770;28;20039;-55
2023/06/08 09:26:33;;;;;;;13.05;7.90;;;;;;;;;;4991020;28;20026;-53
2023/06/08 09:29:06;;;;;;;14.75;8.57;;;;;;;;;;5014193;28;20095;-50
2023/06/08 09:31:32;;;;;;;12.88;7.80;;;;;;;;;;5007613;28;20035;-50
2023/06/08 09:34:05;;;;;;;16.25;7.68;;;;;;;;;;4991788;28;20426;-52
2023/06/08 09:36:31;;;;;;;14.23;8.50;;;;;;;;;;4996403;28;20026;-50
2023/06/08 09:38:56;;;;;;;14.73;8.27;;;;;;;;;;5011038;28;20030;-50
2023/06/08 09:41:22;;;;;;;16.17;9.35;;;;;;;;;;5002572;28;20028;-56
2023/06/08 09:43:50;;;;;;;16.95;9.15;;;;;;;;;;5002425;28;20030;-54
2023/06/08 09:46:39;;;;;;;12.02;8.00;;;;;;;;;;5025779;28;20160;-51
2023/06/08 09:49:06;;;;;;;15.30;8.93;;;;;;;;;;5028440;28;20041;-52
2023/06/08 09:51:36;;;;;;;14.70;8.40;;;;;;;;;;5033492;28;20052;-50
2023/06/08 09:54:03;;;;;;;12.07;7.97;;;;;;;;;;5032765;28;20042;-51
2023/06/08 09:56:29;;;;;;;15.75;8.88;;;;;;;;;;5030782;28;20025;-50
2023/06/08 09:58:56;;;;;;;14.77;8.57;;;;;;;;;;5028618;28;20457;-55
2023/06/08 10:01:35;;;;;;;16.48;8.80;;;;;;;;;;5005986;28;20038;-56
2023/06/08 10:04:06;;;;;;;13.38;7.80;;;;;;;;;;5008017;28;20033;-52
2023/06/08 10:06:32;;;;;;;13.45;7.75;;;;;;;;;;5012929;28;20037;-53
2023/06/08 10:08:59;;;;;;;12.18;8.10;;;;;;;;;;4994890;28;20034;-55
2023/06/08 10:11:25;;;;;;;12.88;8.20;;;;;;;;;;4992707;28;20066;-49
2023/06/08 10:13:52;;;;;;;11.38;7.90;;;;;;;;;;5000339;28;20044;-50
2023/06/08 10:16:18;;;;;;;13.85;8.68;;;;;;;;;;5032907;28;20037;-49
2023/06/08 10:18:44;;;;;;;13.48;7.28;;;;;;;;;;5032075;28;20124;-51
2023/06/08 10:21:11;;;;;;;14.27;7.88;;;;;;;;;;5010025;28;20442;-48
2023/06/08 10:23:38;;;;;;;15.57;8.27;;;;;;;;;;5025226;28;20486;-52
2023/06/08 10:26:04;;;;;;;14.52;8.35;;;;;;;;;;4994372;28;20026;-53
2023/06/08 10:28:29;;;;;;;14.80;8.77;;;;;;;;;;4993477;28;20134;-50
2023/06/08 10:30:55;;;;;;;12.35;7.45;;;;;;;;;;4999324;28;20500;-50
2023/06/08 10:33:24;;;;;;;11.05;7.18;;;;;;;;;;5013712;28;20030;-57
2023/06/08 10:36:09;;;;;;;11.05;7.10;;;;;;;;;;5013501;28;20449;-55
2023/06/08 10:38:51;;;;;;;11.95;7.60;;;;;;;;;;5028364;28;20127;-52
2023/06/08 10:41:38;;;;;;;12.85;8.07;;;;;;;;;;5030837;28;20049;-55
2023/06/08 10:44:04;;;;;;;12.38;7.38;;;;;;;;;;5032941;28;20119;-51
2023/06/08 10:46:42;;;;;;;11.88;7.57;;;;;;;;;;5014543;28;20085;-54
2023/06/08 10:49:08;;;;;;;11.90;7.53;;;;;;;;;;4993358;28;20037;-56
2023/06/08 10:51:43;;;;;;;11.63;7.63;;;;;;;;;;4997603;28;20383;-52
2023/06/08 10:54:09;;;;;;;13.27;7.38;;;;;;;;;;5013456;28;20132;-55
2023/06/08 10:56:46;;;;;;;11.20;7.05;;;;;;;;;;5009155;28;20133;-53
2023/06/08 10:59:11;;;;;;;11.15;7.30;;;;;;;;;;5013289;28;20030;-54
2023/06/08 11:01:37;;;;;;;12.73;7.53;;;;;;;;;;5005721;28;20030;-50
2023/06/08 11:04:05;;;;;;;8.93;6.80;;;;;;;;;;5008433;28;20042;-53
2023/06/08 11:06:33;;;;;;;10.18;6.78;;;;;;;;;;5006723;28;20474;-55
2023/06/08 11:08:59;;;;;;;9.25;6.47;;;;;;;;;;5031527;28;20037;-56
2023/06/08 11:11:26;;;;;;;8.15;6.00;;;;;;;;;;5016504;28;20050;-53
2023/06/08 11:13:54;;;;;;;9.88;6.22;;;;;;;;;;5014842;28;20030;-53
2023/06/08 11:16:20;;;;;;;10.35;6.60;;;;;;;;;;5014922;28;20049;-53
2023/06/08 11:18:45;;;;;;;7.60;6.13;;;;;;;;;;5012335;28;20090;-55
2023/06/08 11:21:11;;;;;;;8.48;6.18;;;;;;;;;;5013302;28;20065;-54
2023/06/08 11:23:37;;;;;;;6.95;5.50;;;;;;;;;;5007127;28;20018;-55
2023/06/08 11:26:03;;;;;;;8.90;5.68;;;;;;;;;;4993033;28;20396;-56
2023/06/08 11:28:28;;;;;;;8.98;5.57;;;;;;;;;;4992507;28;20022;-54
2023/06/08 11:30:54;;;;;;;7.88;6.25;;;;;;;;;;5012025;28;20056;-53
2023/06/08 11:33:20;;;;;;;8.73;6.20;;;;;;;;;;5017742;28;20034;-52
2023/06/08 11:35:50;;;;;;;7.88;5.90;;;;;;;;;;5022533;28;20139;-54
2023/06/08 11:38:15;;;;;;;8.82;6.00;;;;;;;;;;5032520;28;20078;-56
2023/06/08 11:40:41;;;;;;;7.68;5.40;;;;;;;;;;5028354;28;20124;-54
2023/06/08 11:43:09;;;;;;;11.38;5.93;;;;;;;;;;5030985;28;20405;-54
2023/06/08 11:45:34;;;;;;;9.75;5.60;;;;;;;;;;5031416;28;20030;-54
2023/06/08 11:48:02;;;;;;;7.28;5.68;;;;;;;;;;5006096;28;20041;-57
2023/06/08 11:50:29;;;;;;;8.68;5.55;;;;;;;;;;5009781;28;20042;-56
2023/06/08 11:52:55;;;;;;;8.23;5.68;;;;;;;;;;5029832;28;20441;-53
2023/06/08 11:55:24;;;;;;;8.55;5.80;;;;;;;;;;5032286;28;20029;-55
2023/06/08 11:57:57;;;;;;;9.20;5.93;;;;;;;;;;5024792;28;20042;-53
2023/06/08 12:00:25;;;;;;;10.55;6.15;;;;;;;;;;5011081;28;20038;-56
2023/06/08 12:02:51;;;;;;;8.40;5.22;;;;;;;;;;5010155;28;20109;-58
2023/06/08 12:05:17;;;;;;;11.20;6.10;;;;;;;;;;5011893;28;20034;-54
2023/06/08 12:08:08;;;;;;;9.20;6.00;;;;;;;;;;5011231;28;20380;-57
2023/06/08 12:10:36;;;;;;;7.72;5.57;;;;;;;;;;5017526;28;20037;-58
2023/06/08 12:13:06;;;;;;;7.72;5.70;;;;;;;;;;5013759;28;20052;-57
2023/06/08 12:15:36;;;;;;;8.00;5.22;;;;;;;;;;4999724;28;20030;-55
2023/06/08 12:18:03;;;;;;;8.15;5.43;;;;;;;;;;5009084;28;20092;-57
2023/06/08 12:20:34;;;;;;;9.68;5.32;;;;;;;;;;5017788;28;20064;-57
2023/06/08 12:23:00;;;;;;;7.90;4.97;;;;;;;;;;5029911;28;20063;-52
2023/06/08 12:25:26;;;;;;;8.63;5.75;;;;;;;;;;5031844;28;20458;-57
2023/06/08 12:27:51;;;;;;;6.78;5.40;;;;;;;;;;5012923;28;20033;-56
2023/06/08 12:30:17;;;;;;;7.68;5.30;;;;;;;;;;5015408;28;20068;-57
2023/06/08 12:32:43;;;;;;;5.68;5.00;;;;;;;;;;5027380;28;20032;-53
2023/06/08 12:35:08;;;;;;;8.05;5.60;;;;;;;;;;5031313;28;20033;-53
2023/06/08 12:37:34;;;;;;;6.45;5.50;;;;;;;;;;5023629;28;20037;-56
2023/06/08 12:40:00;;;;;;;7.65;5.30;;;;;;;;;;5011973;28;20046;-55
2023/06/08 12:42:27;;;;;;;9.57;5.75;;;;;;;;;;5023601;28;20390;-51
2023/06/08 12:44:53;;;;;;;6.70;5.30;;;;;;;;;;5023354;28;20033;-56
2023/06/08 12:47:19;;;;;;;8.07;5.68;;;;;;;;;;5011273;28;20117;-55
2023/06/08 12:49:45;;;;;;;8.52;5.47;;;;;;;;;;5011006;28;20062;-52
2023/06/08 12:52:11;;;;;;;9.38;5.38;;;;;;;;;;5025552;28;20029;-57
2023/06/08 12:54:36;;;;;;;7.60;5.55;;;;;;;;;;5014880;28;20038;-56
2023/06/08 12:57:02;;;;;;;6.70;4.90;;;;;;;;;;5011619;28;20026;-57
2023/06/08 12:59:28;;;;;;;5.95;5.10;;;;;;;;;;5011597;28;20040;-56
2023/06/08 13:01:54;;;;;;;5.75;4.90;;;;;;;;;;5021210;28;20044;-56
2023/06/08 13:04:19;;;;;;;6.90;5.00;;;;;;;;;;5011014;28;20402;-54
2023/06/08 13:06:45;;;;;;;6.28;4.85;;;;;;;;;;5010590;28;20026;-57
2023/06/08 13:09:10;;;;;;;6.30;4.93;;;;;;;;;;5014408;28;20025;-55
2023/06/08 13:11:36;;;;;;;7.47;4.93;;;;;;;;;;5018779;28;20040;-59
2023/06/08 13:14:02;;;;;;;6.47;4.97;;;;;;;;;;5014325;28;20077;-58
2023/06/08 13:16:27;;;;;;;7.47;5.03;;;;;;;;;;5014096;28;20086;-57
2023/06/08 13:18:53;;;;;;;6.82;4.68;;;;;;;;;;5008967;28;20026;-56
2023/06/08 13:21:18;;;;;;;6.82;4.95;;;;;;;;;;5013380;28;20030;-54
2023/06/08 13:23:44;;;;;;;9.20;5.13;;;;;;;;;;5014352;28;20034;-56
2023/06/08 13:26:10;;;;;;;9.00;5.13;;;;;;;;;;4997019;28;20049;-55
2023/06/08 13:28:35;;;;;;;10.45;5.22;;;;;;;;;;5001589;28;20030;-54
2023/06/08 13:31:01;;;;;;;5.90;4.70;;;;;;;;;;5019031;28;20084;-56
2023/06/08 13:33:27;;;;;;;6.18;4.57;;;;;;;;;;5034489;28;20118;-57
2023/06/08 13:35:52;;;;;;;7.05;5.00;;;;;;;;;;5033917;28;20048;-54
2023/06/08 13:38:18;;;;;;;7.28;5.00;;;;;;;;;;5034887;28;20052;-55
2023/06/08 13:40:43;;;;;;;5.88;4.40;;;;;;;;;;5033624;28;20083;-56
2023/06/08 13:43:12;;;;;;;7.07;4.70;;;;;;;;;;5024848;28;20034;-51
2023/06/08 13:45:37;;;;;;;9.75;4.70;;;;;;;;;;5014155;28;20042;-55
2023/06/08 13:48:03;;;;;;;5.60;4.70;;;;;;;;;;5021381;28;20038;-56
2023/06/08 13:50:29;;;;;;;5.18;4.60;;;;;;;;;;5014552;28;20029;-53
2023/06/08 13:52:56;;;;;;;6.13;4.50;;;;;;;;;;5013998;28;20030;-56
2023/06/08 13:55:23;;;;;;;5.63;4.47;;;;;;;;;;5014672;28;20044;-53
2023/06/08 13:57:49;;;;;;;8.93;4.80;;;;;;;;;;5008344;28;20045;-56
2023/06/08 14:00:15;;;;;;;6.85;5.00;;;;;;;;;;5007583;28;20144;-55
2023/06/08 14:02:41;;;;;;;7.03;5.00;;;;;;;;;;5001444;28;20038;-55
2023/06/08 14:05:07;;;;;;;17.23;5.32;;;;;;;;;;5000714;28;20084;-54
2023/06/08 14:07:32;;;;;;;9.70;5.68;;;;;;;;;;5006468;28;20518;-57
2023/06/08 14:09:59;;;;;;;7.90;5.15;;;;;;;;;;5012596;28;20030;-56
2023/06/08 14:12:25;;;;;;;6.72;5.10;;;;;;;;;;5005437;28;20455;-56
2023/06/08 14:14:51;;;;;;;6.15;4.88;;;;;;;;;;4999368;28;20037;-56
2023/06/08 14:17:16;;;;;;;8.82;4.80;;;;;;;;;;5018911;28;20452;-55
2023/06/08 14:19:42;;;;;;;11.05;5.60;;;;;;;;;;5012612;28;20387;-53
2023/06/08 14:22:07;;;;;;;8.63;5.00;;;;;;;;;;5014421;28;20026;-53
2023/06/08 14:24:33;;;;;;;8.88;5.00;;;;;;;;;;5012484;28;20026;-57
2023/06/08 14:26:58;;;;;;;7.13;4.97;;;;;;;;;;5011767;28;20038;-56
2023/06/08 14:29:24;;;;;;;8.30;5.25;;;;;;;;;;5017863;28;20037;-57
2023/06/08 14:31:49;;;;;;;8.73;5.07;;;;;;;;;;5017348;28;20037;-56